createdAt,value
2022-10-03T00:01:59.946Z,12.17
2022-10-03T00:05:00.231Z,12.13
2022-10-03T00:08:03.179Z,12.26
2022-10-03T00:10:49.230Z,12.09
2022-10-03T00:13:25.661Z,11.52
2022-10-03T00:16:09.389Z,11.96
2022-10-03T00:18:55.380Z,12.08
2022-10-03T00:21:45.668Z,12.15
2022-10-03T00:24:26.916Z,12.17
2022-10-03T00:27:04.351Z,12.10
2022-10-03T00:29:54.699Z,12.02
2022-10-03T00:32:46.752Z,12.10
2022-10-03T00:35:31.711Z,12.01
2022-10-03T00:38:19.704Z,12.07
2022-10-03T00:41:24.205Z,12.01
2022-10-03T00:45:02.267Z,12.14
2022-10-03T00:48:12.068Z,11.74
2022-10-03T00:51:03.601Z,11.75
2022-10-03T00:54:02.190Z,12.03
2022-10-03T00:56:55.365Z,11.77
2022-10-03T00:59:38.939Z,11.42
2022-10-03T01:02:37.759Z,12.10
2022-10-03T01:05:22.040Z,12.18
2022-10-03T01:08:44.301Z,12.00
2022-10-03T01:11:26.416Z,12.01
2022-10-03T01:14:17.720Z,11.83
2022-10-03T01:16:59.915Z,11.75
2022-10-03T01:19:57.008Z,12.01
2022-10-03T01:23:06.969Z,11.49
2022-10-03T01:25:42.548Z,12.07
2022-10-03T01:28:57.035Z,12.10
2022-10-03T01:31:34.395Z,12.05
2022-10-03T01:34:12.907Z,12.09
2022-10-03T01:36:52.991Z,11.46
2022-10-03T01:39:29.258Z,11.95
2022-10-03T01:42:04.019Z,11.75
2022-10-03T01:44:52.121Z,11.97
2022-10-03T01:47:28.763Z,11.88
2022-10-03T01:50:08.820Z,11.90
2022-10-03T01:52:48.161Z,11.61
2022-10-03T01:55:25.504Z,11.67
2022-10-03T01:58:02.128Z,11.54
2022-10-03T02:00:43.673Z,11.84
2022-10-03T02:03:21.726Z,11.74
2022-10-03T02:06:02.476Z,11.19
2022-10-03T02:08:56.481Z,11.03
2022-10-03T02:11:35.793Z,11.84
2022-10-03T02:14:23.181Z,11.81
2022-10-03T02:17:05.143Z,11.72
2022-10-03T02:19:48.492Z,11.84
2022-10-03T02:22:34.338Z,11.60
2022-10-03T02:25:22.125Z,11.75
2022-10-03T02:28:30.615Z,11.78
2022-10-03T02:31:32.393Z,11.76
2022-10-03T02:34:56.965Z,11.60
2022-10-03T02:38:08.657Z,11.71
2022-10-03T02:41:04.674Z,11.69
2022-10-03T02:44:25.967Z,11.77
2022-10-03T02:48:30.544Z,11.70
2022-10-03T02:51:50.343Z,11.74
2022-10-03T02:54:56.320Z,11.76
2022-10-03T02:58:03.798Z,11.57
2022-10-03T03:00:49.337Z,11.34
2022-10-03T03:03:53.377Z,11.50
2022-10-03T03:06:55.673Z,11.47
2022-10-03T03:10:03.848Z,11.39
2022-10-03T03:13:10.373Z,11.76
2022-10-03T03:16:18.850Z,11.62
2022-10-03T03:19:04.794Z,11.26
2022-10-03T03:21:43.115Z,11.20
2022-10-03T03:24:33.653Z,11.58
2022-10-03T03:27:24.854Z,11.28
2022-10-03T03:30:03.788Z,11.73
2022-10-03T03:32:50.057Z,11.71
2022-10-03T03:35:34.567Z,11.79
2022-10-03T03:38:26.539Z,11.91
2022-10-03T03:41:22.489Z,11.90
2022-10-03T03:44:46.466Z,11.98
2022-10-03T03:47:36.469Z,11.93
2022-10-03T03:50:26.492Z,11.03
2022-10-03T03:53:29.260Z,11.80
2022-10-03T03:56:28.471Z,11.89
2022-10-03T03:59:16.466Z,11.69
2022-10-03T04:02:06.645Z,11.74
2022-10-03T04:04:56.381Z,11.81
2022-10-03T04:07:48.369Z,11.58
2022-10-03T04:10:38.375Z,11.63
2022-10-03T04:13:36.854Z,11.45
2022-10-03T04:16:55.149Z,11.65
2022-10-03T04:19:33.857Z,11.65
2022-10-03T04:22:32.286Z,11.55
2022-10-03T04:25:37.926Z,11.46
2022-10-03T04:28:58.983Z,11.57
2022-10-03T04:31:43.635Z,11.51
2022-10-03T04:34:41.369Z,11.51
2022-10-03T04:37:39.086Z,11.43
2022-10-03T04:40:27.769Z,11.27
2022-10-03T04:43:10.374Z,11.09
2022-10-03T04:46:15.246Z,11.04
2022-10-03T04:48:52.756Z,11.44
2022-10-03T04:51:37.826Z,11.05
2022-10-03T04:54:23.402Z,11.36
2022-10-03T04:57:00.790Z,11.19
2022-10-03T04:59:52.697Z,10.93
2022-10-03T05:02:35.690Z,11.23
2022-10-03T05:05:44.281Z,11.20
2022-10-03T05:08:32.890Z,11.01
2022-10-03T05:11:19.593Z,11.26
2022-10-03T05:14:03.790Z,11.05
2022-10-03T05:16:43.119Z,10.65
2022-10-03T05:19:49.420Z,11.18
2022-10-03T05:22:33.249Z,11.06
2022-10-03T05:25:17.799Z,11.00
2022-10-03T05:27:54.437Z,11.23
2022-10-03T05:30:42.136Z,11.24
2022-10-03T05:33:26.042Z,11.23
2022-10-03T05:36:13.137Z,11.16
2022-10-03T05:39:35.111Z,11.10
2022-10-03T05:42:37.357Z,11.17
2022-10-03T05:45:24.391Z,11.25
2022-10-03T05:48:01.767Z,11.01
2022-10-03T05:51:01.370Z,11.37
2022-10-03T05:54:14.103Z,11.02
2022-10-03T05:57:23.584Z,11.55
2022-10-03T06:00:12.195Z,11.74
2022-10-03T06:03:23.484Z,11.90
2022-10-03T06:06:08.136Z,12.03
2022-10-03T06:09:13.733Z,12.02
2022-10-03T06:12:05.894Z,12.48
2022-10-03T06:14:54.713Z,12.52
2022-10-03T06:17:58.887Z,12.66
2022-10-03T06:21:07.210Z,12.84
2022-10-03T06:24:31.764Z,12.88
2022-10-03T06:28:06.195Z,13.01
2022-10-03T06:31:04.031Z,13.12
2022-10-03T06:34:32.837Z,13.30
2022-10-03T06:37:49.391Z,13.43
2022-10-03T06:40:58.188Z,13.47
2022-10-03T06:44:08.984Z,13.54
2022-10-03T06:47:04.644Z,13.34
2022-10-03T06:50:19.532Z,13.45
2022-10-03T06:53:27.203Z,13.62
2022-10-03T06:56:24.737Z,13.51
2022-10-03T06:59:29.446Z,13.54
2022-10-03T07:02:50.176Z,13.49
2022-10-03T07:06:18.830Z,13.41
2022-10-03T07:09:35.695Z,13.13
2022-10-03T07:13:02.692Z,13.25
2022-10-03T07:16:28.224Z,13.40
2022-10-03T07:19:24.067Z,13.33
2022-10-03T07:22:44.991Z,13.41
2022-10-03T07:26:16.313Z,13.39
2022-10-03T07:29:36.046Z,13.27
2022-10-03T07:32:46.577Z,13.35
2022-10-03T07:35:59.085Z,13.63
2022-10-03T07:39:12.785Z,13.82
2022-10-03T07:42:43.520Z,14.23
2022-10-03T07:45:36.167Z,14.42
2022-10-03T07:48:52.396Z,14.66
2022-10-03T07:51:30.452Z,14.75
2022-10-03T07:54:37.589Z,14.60
2022-10-03T07:57:57.149Z,15.00
2022-10-03T08:00:31.059Z,14.95
2022-10-03T08:03:56.172Z,15.28
2022-10-03T08:06:38.104Z,15.27
2022-10-03T08:09:39.385Z,15.54
2022-10-03T08:12:43.033Z,15.79
2022-10-03T08:15:24.982Z,15.61
2022-10-03T08:18:58.322Z,16.19
2022-10-03T08:21:43.536Z,16.40
2022-10-03T08:24:51.335Z,16.63
2022-10-03T08:27:45.203Z,16.76
2022-10-03T08:30:23.751Z,16.40
2022-10-03T08:33:32.324Z,16.63
2022-10-03T08:36:51.852Z,16.67
2022-10-03T08:39:47.656Z,16.67
2022-10-03T08:42:51.955Z,16.76
2022-10-03T08:45:53.704Z,16.69
2022-10-03T08:49:01.870Z,17.36
2022-10-03T08:52:08.974Z,17.44
2022-10-03T08:55:21.199Z,17.57
2022-10-03T08:58:24.835Z,18.06
2022-10-03T09:01:26.130Z,18.15
2022-10-03T09:04:46.409Z,18.23
2022-10-03T09:07:58.535Z,18.21
2022-10-03T09:11:03.037Z,18.39
2022-10-03T09:14:14.656Z,18.88
2022-10-03T09:17:02.839Z,19.29
2022-10-03T09:20:24.930Z,19.54
2022-10-03T09:23:47.097Z,19.62
2022-10-03T09:27:14.742Z,20.02
2022-10-03T09:30:25.002Z,20.37
2022-10-03T09:33:50.679Z,20.40
2022-10-03T09:37:19.566Z,20.70
2022-10-03T09:40:59.296Z,20.52
2022-10-03T09:44:30.089Z,20.85
2022-10-03T09:47:31.226Z,20.71
2022-10-03T09:51:00.272Z,20.95
2022-10-03T09:54:19.663Z,20.77
2022-10-03T09:57:45.625Z,20.97
2022-10-03T10:00:27.851Z,20.75
2022-10-03T10:03:27.724Z,20.46
2022-10-03T10:06:33.322Z,20.80
2022-10-03T10:10:06.728Z,20.80
2022-10-03T10:13:15.146Z,20.40
2022-10-03T10:16:22.970Z,20.93
2022-10-03T10:19:33.269Z,21.13
2022-10-03T10:22:36.537Z,20.79
2022-10-03T10:25:45.343Z,21.23
2022-10-03T10:29:18.533Z,21.15
2022-10-03T10:32:57.590Z,21.28
2022-10-03T10:36:22.263Z,21.32
2022-10-03T10:39:31.974Z,21.44
2022-10-03T10:43:03.678Z,21.36
2022-10-03T10:45:48.280Z,20.97
2022-10-03T10:49:29.993Z,21.05
2022-10-03T10:52:40.629Z,21.05
2022-10-03T10:56:07.466Z,21.35
2022-10-03T10:59:53.436Z,21.47
2022-10-03T11:03:18.961Z,21.59
2022-10-03T11:06:43.210Z,21.48
2022-10-03T11:09:56.980Z,21.19
2022-10-03T11:13:25.142Z,21.15
2022-10-03T11:17:05.046Z,21.57
2022-10-03T11:20:41.847Z,21.59
2022-10-03T11:23:49.809Z,21.86
2022-10-03T11:27:02.061Z,21.94
2022-10-03T11:30:23.317Z,22.32
2022-10-03T11:33:54.018Z,22.93
2022-10-03T11:37:10.814Z,23.56
2022-10-03T11:39:54.840Z,23.76
2022-10-03T11:42:39.760Z,24.00
2022-10-03T11:45:21.436Z,23.98
2022-10-03T11:48:02.401Z,23.68
2022-10-03T11:50:44.874Z,23.49
2022-10-03T11:53:43.911Z,23.14
2022-10-03T11:56:33.974Z,22.96
2022-10-03T11:59:35.086Z,22.85
2022-10-03T12:02:16.193Z,22.73
2022-10-03T12:05:07.442Z,22.61
2022-10-03T12:08:05.169Z,22.48
2022-10-03T12:10:55.782Z,22.43
2022-10-03T12:13:33.522Z,22.44
2022-10-03T12:16:07.208Z,22.36
2022-10-03T12:18:55.243Z,22.18
2022-10-03T12:21:30.369Z,22.04
2022-10-03T12:24:27.525Z,22.13
2022-10-03T12:27:07.644Z,21.75
2022-10-03T12:29:41.130Z,21.14
2022-10-03T12:32:22.258Z,20.91
2022-10-03T12:35:00.762Z,21.24
2022-10-03T12:37:50.657Z,21.33
2022-10-03T12:40:27.844Z,21.03
2022-10-03T12:43:09.596Z,21.43
2022-10-03T12:45:44.056Z,21.21
2022-10-03T12:48:34.539Z,20.76
2022-10-03T12:51:13.730Z,20.82
2022-10-03T12:53:59.048Z,21.24
2022-10-03T12:56:42.253Z,20.86
2022-10-03T12:59:34.394Z,21.46
2022-10-03T13:02:30.763Z,20.96
2022-10-03T13:05:36.193Z,21.19
2022-10-03T13:08:20.445Z,21.23
2022-10-03T13:10:56.929Z,21.28
2022-10-03T13:13:33.774Z,21.94
2022-10-03T13:16:25.071Z,22.06
2022-10-03T13:19:06.234Z,22.44
2022-10-03T13:22:08.208Z,22.50
2022-10-03T13:24:43.166Z,22.12
2022-10-03T13:27:32.325Z,22.20
2022-10-03T13:30:09.696Z,22.25
2022-10-03T13:32:43.320Z,21.80
2022-10-03T13:35:54.535Z,21.41
2022-10-03T13:39:07.974Z,21.55
2022-10-03T13:41:59.671Z,21.30
2022-10-03T13:44:41.750Z,20.96
2022-10-03T13:47:31.880Z,21.12
2022-10-03T13:50:06.127Z,20.95
2022-10-03T13:52:41.110Z,21.09
2022-10-03T13:55:26.574Z,20.71
2022-10-03T13:58:38.261Z,20.72
2022-10-03T14:01:47.611Z,20.92
2022-10-03T14:04:48.620Z,20.84
2022-10-03T14:07:28.639Z,21.06
2022-10-03T14:10:16.418Z,21.03
2022-10-03T14:13:16.243Z,20.77
2022-10-03T14:15:55.780Z,20.96
2022-10-03T14:18:40.445Z,20.84
2022-10-03T14:21:49.783Z,21.24
2022-10-03T14:24:42.932Z,21.19
2022-10-03T14:27:50.154Z,21.31
2022-10-03T14:30:23.628Z,21.23
2022-10-03T14:33:10.946Z,20.77
2022-10-03T14:35:47.571Z,20.62
2022-10-03T14:39:05.127Z,21.32
2022-10-03T14:42:18.316Z,21.33
2022-10-03T14:44:53.726Z,21.65
2022-10-03T14:47:24.105Z,21.47
2022-10-03T14:49:59.765Z,21.14
2022-10-03T14:52:37.585Z,21.30
2022-10-03T14:55:17.667Z,21.59
2022-10-03T14:58:09.866Z,21.23
2022-10-03T15:00:46.725Z,20.87
2022-10-03T15:03:28.663Z,21.20
2022-10-03T15:06:03.066Z,21.26
2022-10-03T15:08:39.306Z,21.39
2022-10-03T15:11:10.133Z,21.21
2022-10-03T15:13:48.941Z,21.56
2022-10-03T15:16:23.061Z,21.21
2022-10-03T15:18:57.908Z,20.49
2022-10-03T15:21:28.459Z,20.80
2022-10-03T15:24:03.191Z,21.06
2022-10-03T15:26:37.131Z,21.63
2022-10-03T15:29:08.229Z,20.31
2022-10-03T15:31:40.213Z,21.26
2022-10-03T15:34:22.502Z,20.99
2022-10-03T15:36:55.687Z,21.51
2022-10-03T15:39:29.507Z,21.11
2022-10-03T15:42:06.236Z,21.09
2022-10-03T15:44:40.130Z,21.24
2022-10-03T15:47:14.663Z,21.06
2022-10-03T15:49:50.930Z,20.84
2022-10-03T15:52:25.788Z,20.71
2022-10-03T15:55:14.334Z,20.64
2022-10-03T15:57:47.582Z,20.44
2022-10-03T16:00:30.579Z,20.26
2022-10-03T16:03:16.119Z,18.95
2022-10-03T16:06:01.808Z,20.39
2022-10-03T16:08:36.171Z,20.36
2022-10-03T16:11:14.008Z,20.17
2022-10-03T16:13:45.930Z,20.26
2022-10-03T16:16:23.753Z,20.06
2022-10-03T16:19:20.301Z,20.15
2022-10-03T16:21:57.492Z,20.17
2022-10-03T16:24:35.209Z,20.14
2022-10-03T16:27:14.615Z,20.05
2022-10-03T16:29:52.308Z,20.05
2022-10-03T16:32:24.873Z,19.08
2022-10-03T16:34:54.625Z,19.95
2022-10-03T16:37:29.948Z,19.82
2022-10-03T16:40:02.872Z,18.80
2022-10-03T16:42:42.588Z,19.62
2022-10-03T16:45:26.397Z,19.39
2022-10-03T16:48:15.874Z,19.43
2022-10-03T16:50:50.145Z,19.32
2022-10-03T16:53:22.350Z,19.34
2022-10-03T16:55:59.903Z,19.29
2022-10-03T16:58:33.290Z,19.11
2022-10-03T17:04:00.942Z,18.99
2022-10-03T17:06:32.769Z,18.91
2022-10-03T17:09:08.848Z,18.92
2022-10-03T17:11:39.818Z,18.86
2022-10-03T17:14:10.459Z,18.70
2022-10-03T17:16:47.608Z,18.64
2022-10-03T17:19:27.251Z,18.58
2022-10-03T17:22:03.810Z,18.66
2022-10-03T17:24:44.514Z,18.54
2022-10-03T17:27:29.537Z,18.48
2022-10-03T17:30:02.956Z,18.48
2022-10-03T17:32:38.943Z,18.40
2022-10-03T17:35:15.600Z,17.32
2022-10-03T17:38:30.492Z,18.05
2022-10-03T17:41:17.149Z,18.08
2022-10-03T17:43:51.278Z,17.99
2022-10-03T17:46:28.423Z,17.91
2022-10-03T17:49:08.284Z,17.78
2022-10-03T17:51:41.951Z,17.71
2022-10-03T17:54:16.461Z,17.68
2022-10-03T17:56:53.136Z,17.59
2022-10-03T17:59:28.147Z,17.31
2022-10-03T18:02:03.231Z,17.34
2022-10-03T18:04:37.426Z,17.21
2022-10-03T18:07:10.779Z,17.05
2022-10-03T18:09:47.861Z,17.30
2022-10-03T18:12:33.657Z,17.08
2022-10-03T18:15:42.471Z,17.18
2022-10-03T18:19:08.488Z,17.24
2022-10-03T18:21:55.330Z,17.15
2022-10-03T18:24:39.395Z,17.06
2022-10-03T18:27:51.452Z,16.22
2022-10-03T18:30:25.428Z,16.99
2022-10-03T18:32:59.342Z,16.79
2022-10-03T18:35:30.901Z,16.64
2022-10-03T18:38:14.121Z,16.83
2022-10-03T18:40:49.467Z,16.44
2022-10-03T18:43:34.947Z,16.75
2022-10-03T18:46:16.391Z,16.65
2022-10-03T18:49:30.029Z,16.51
2022-10-03T18:51:57.975Z,16.74
2022-10-03T18:54:42.244Z,16.76
2022-10-03T18:57:19.838Z,16.53
2022-10-03T18:59:57.049Z,16.61
2022-10-03T19:02:37.823Z,16.67
2022-10-03T19:05:16.994Z,16.52
2022-10-03T19:07:52.181Z,16.70
2022-10-03T19:10:37.222Z,16.46
2022-10-03T19:13:19.561Z,16.59
2022-10-03T19:16:23.249Z,16.54
2022-10-03T19:19:07.011Z,16.29
2022-10-03T19:21:40.227Z,16.32
2022-10-03T19:24:14.742Z,16.27
2022-10-03T19:26:52.280Z,16.23
2022-10-03T19:29:26.497Z,16.03
2022-10-03T19:32:03.616Z,15.97
2022-10-03T19:34:39.085Z,16.20
2022-10-03T19:37:16.897Z,16.26
2022-10-03T19:39:46.092Z,15.93
2022-10-03T19:42:34.246Z,16.16
2022-10-03T19:45:02.837Z,16.32
2022-10-03T19:47:35.096Z,16.08
2022-10-03T19:50:12.736Z,16.40
2022-10-03T19:52:41.889Z,16.31
2022-10-03T19:55:18.555Z,16.25
2022-10-03T19:57:52.541Z,16.39
2022-10-03T20:00:29.256Z,15.37
2022-10-03T20:03:13.250Z,16.09
2022-10-03T20:05:51.942Z,16.34
2022-10-03T20:08:34.306Z,16.29
2022-10-03T20:11:22.553Z,16.19
2022-10-03T20:13:51.379Z,16.32
2022-10-03T20:16:25.179Z,16.40
2022-10-03T20:19:05.449Z,16.09
2022-10-03T20:21:34.515Z,16.32
2022-10-03T20:24:09.141Z,16.30
2022-10-03T20:26:45.792Z,15.85
2022-10-03T20:29:29.629Z,16.27
2022-10-03T20:32:03.491Z,16.09
2022-10-03T20:34:37.592Z,16.05
2022-10-03T20:37:36.603Z,16.24
2022-10-03T20:40:24.147Z,16.07
2022-10-03T20:43:00.760Z,16.10
2022-10-03T20:45:31.300Z,15.94
2022-10-03T20:48:04.153Z,15.62
2022-10-03T20:50:38.246Z,15.33
2022-10-03T20:53:18.590Z,16.11
2022-10-03T20:55:52.067Z,16.08
2022-10-03T20:58:30.053Z,15.95
2022-10-03T21:01:03.227Z,16.07
2022-10-03T21:03:40.284Z,16.05
2022-10-03T21:06:21.069Z,15.94
2022-10-03T21:08:50.074Z,15.92
2022-10-03T21:11:24.139Z,16.02
2022-10-03T21:13:57.445Z,15.92
2022-10-03T21:16:29.578Z,16.00
2022-10-03T21:19:02.794Z,15.98
2022-10-03T21:21:42.206Z,16.00
2022-10-03T21:24:27.739Z,15.70
2022-10-03T21:27:03.697Z,15.40
2022-10-03T21:29:35.457Z,15.68
2022-10-03T21:32:52.807Z,15.62
2022-10-03T21:35:27.628Z,15.29
2022-10-03T21:38:22.292Z,15.25
2022-10-03T21:41:17.713Z,14.43
2022-10-03T21:43:54.147Z,15.20
2022-10-03T21:46:40.417Z,14.87
2022-10-03T21:49:36.569Z,14.86
2022-10-03T21:52:39.230Z,15.04
2022-10-03T21:55:51.198Z,15.04
2022-10-03T21:58:46.265Z,14.80
2022-10-03T22:01:23.955Z,14.88
2022-10-03T22:03:58.737Z,14.78
2022-10-03T22:06:31.677Z,14.72
2022-10-03T22:09:04.690Z,14.92
2022-10-03T22:11:44.122Z,14.75
2022-10-03T22:14:30.337Z,14.92
2022-10-03T22:17:07.668Z,15.00
2022-10-03T22:19:41.774Z,14.99
2022-10-03T22:22:40.811Z,14.96
2022-10-03T22:25:29.381Z,14.73
2022-10-03T22:28:09.729Z,14.87
2022-10-03T22:30:45.573Z,15.02
2022-10-03T22:33:23.297Z,15.06
2022-10-03T22:35:55.375Z,14.97
2022-10-03T22:38:29.243Z,15.08
2022-10-03T22:41:04.195Z,15.03
2022-10-03T22:43:37.124Z,14.97
2022-10-03T22:46:08.375Z,14.96
2022-10-03T22:48:43.633Z,15.00
2022-10-03T22:51:16.066Z,14.86
2022-10-03T22:53:49.489Z,15.00
2022-10-03T22:56:44.202Z,14.79
2022-10-03T22:59:20.371Z,15.06
2022-10-03T23:01:51.826Z,15.10
2022-10-03T23:04:31.674Z,15.13
2022-10-03T23:07:27.066Z,15.16
2022-10-03T23:10:08.674Z,15.02
2022-10-03T23:12:45.627Z,14.95
2022-10-03T23:15:18.697Z,15.09
2022-10-03T23:18:15.778Z,15.20
2022-10-03T23:21:07.577Z,14.92
2022-10-03T23:23:55.808Z,15.22
2022-10-03T23:26:48.101Z,15.10
2022-10-03T23:29:18.281Z,15.08
2022-10-03T23:32:02.592Z,15.08
2022-10-03T23:35:08.073Z,15.12
2022-10-03T23:37:43.785Z,15.05
2022-10-03T23:40:43.797Z,15.04
2022-10-03T23:43:34.152Z,14.92
2022-10-03T23:46:05.615Z,14.84
2022-10-03T23:48:45.608Z,14.94
2022-10-03T23:51:17.639Z,14.52
2022-10-03T23:53:51.400Z,14.81
2022-10-03T23:56:35.643Z,14.77
2022-10-03T23:59:24.033Z,14.71
